Sar-01 — UUAV2 — position and weather

sailwx.info

Track history (hours):
 
Tides and Currents Weather Stations Pressure Air Temp Water Temp Dewpoint Dewpoint Depression Visibility Wind Speed Wind Dir Waves Ship Positions

Sar-01

Last reported at 2017-Sep-21 04:27 UTC. Time now 2017-Sep-23 23:54 UTC.
Position N 46°21' E 030°42'.

Length 16 m; draft 0.9 m.

Type: SAR. MMSI: 272682000.

Date/timePositionNaut miles runAvg speedWind from/ knotsBaromVisibWave heightAir tempDewpointWater temp
2017-Sep-21 04:27N 46°21' E 030°42'0 0.0
2017-Sep-20 23:30N 46°21' E 030°42'0 0.0
2017-Sep-20 17:18N 46°21' E 030°42'3 0.4
2017-Sep-20 09:54N 46°20' E 030°38'1 0.7
2017-Sep-20 08:44N 46°20' E 030°39'8 0.5
2017-Sep-19 15:45N 46°26' E 030°47'415.7
2017-Sep-19 15:30N 46°30' E 030°45'2 4.3
2017-Sep-19 15:01N 46°28' E 030°47'1 1.1
2017-Sep-19 14:30N 46°28' E 030°47'2 4.4
2017-Sep-19 14:01N 46°30' E 030°45'0 0.0
2017-Sep-19 13:31N 46°30' E 030°45'0 0.0
2017-Sep-19 13:01N 46°30' E 030°45'9 0.3
2017-Sep-18 05:27N 46°21' E 030°42'0 0.0
2017-Sep-18 05:00N 46°21' E 030°42'0 0.0
2017-Sep-18 04:30N 46°21' E 030°42'0 0.0
2017-Sep-18 04:00N 46°21' E 030°42'0 0.0
2017-Sep-18 03:30N 46°21' E 030°42'0 0.0
2017-Sep-18 02:47N 46°21' E 030°42'0 0.0
2017-Sep-18 02:30N 46°21' E 030°42'0 0.0
2017-Sep-18 02:00N 46°21' E 030°42'0 0.0
2017-Sep-18 01:27N 46°21' E 030°42'0 0.0
2017-Sep-18 01:00N 46°21' E 030°42'0 0.0
2017-Sep-18 00:30N 46°21' E 030°42'0 0.0
2017-Sep-18 00:00N 46°21' E 030°42'0 0.0
2017-Sep-17 23:31N 46°21' E 030°42'0 0.0
2017-Sep-17 23:00N 46°21' E 030°42'0 0.0
2017-Sep-17 22:31N 46°21' E 030°42'0 0.0
2017-Sep-17 21:35N 46°21' E 030°42'0 0.0
2017-Sep-17 21:27N 46°21' E 030°42'0 0.0
2017-Sep-17 21:01N 46°21' E 030°42'0 0.0
2017-Sep-17 20:12N 46°21' E 030°42'0 0.0
2017-Sep-17 07:38N 46°21' E 030°42'0 0.0
2017-Sep-17 07:29N 46°21' E 030°42'0 0.0
2017-Sep-17 07:00N 46°21' E 030°42'0 0.0
2017-Sep-17 05:31N 46°21' E 030°42'0 0.0
2017-Sep-17 05:30N 46°21' E 030°42'3 0.1
2017-Sep-15 10:56N 46°20' E 030°38'0 0.0
2017-Sep-15 10:30N 46°20' E 030°38'0 0.0
2017-Sep-15 09:58N 46°20' E 030°38'0 0.0
2017-Sep-15 09:30N 46°20' E 030°38'0 0.0
2017-Sep-15 08:59N 46°20' E 030°38'  
2017-Sep-12 10:17N 46°21' E 030°42'0 0.0
2017-Sep-12 00:58N 46°21' E 030°42'0 0.0
2017-Sep-11 17:15N 46°21' E 030°42'0 0.0
2017-Sep-11 17:00N 46°21' E 030°42'0 0.0
2017-Sep-11 16:29N 46°21' E 030°42'0 0.0
2017-Sep-11 15:59N 46°21' E 030°42'0 0.0
2017-Sep-11 15:29N 46°21' E 030°42'0 0.0
2017-Sep-11 15:00N 46°21' E 030°42'0 0.0
2017-Sep-11 14:30N 46°21' E 030°42'0 0.0
2017-Sep-11 14:00N 46°21' E 030°42'0 0.0
2017-Sep-11 13:30N 46°21' E 030°42'0 0.0
2017-Sep-11 13:00N 46°21' E 030°42'  
Track history (hours):
 
Tides and Currents Weather Stations Pressure Air Temp Water Temp Dewpoint Dewpoint Depression Visibility Wind Speed Wind Dir Waves Ship Positions

Sar-01

Last reported at 2017-Sep-21 04:27 UTC. Time now 2017-Sep-23 23:54 UTC.
Position N 46°21' E 030°42'.

Length 16 m; draft 0.9 m.

Type: SAR. MMSI: 272682000.

Date/timePositionNaut miles runAvg speedWind from/ knotsBaromVisibWave heightAir tempDewpointWater temp
2017-Sep-21 04:27N 46°21' E 030°42'0 0.0
2017-Sep-20 23:30N 46°21' E 030°42'0 0.0
2017-Sep-20 17:18N 46°21' E 030°42'3 0.4
2017-Sep-20 09:54N 46°20' E 030°38'1 0.7
2017-Sep-20 08:44N 46°20' E 030°39'8 0.5
2017-Sep-19 15:45N 46°26' E 030°47'415.7
2017-Sep-19 15:30N 46°30' E 030°45'2 4.3
2017-Sep-19 15:01N 46°28' E 030°47'1 1.1
2017-Sep-19 14:30N 46°28' E 030°47'2 4.4
2017-Sep-19 14:01N 46°30' E 030°45'0 0.0
2017-Sep-19 13:31N 46°30' E 030°45'0 0.0
2017-Sep-19 13:01N 46°30' E 030°45'9 0.3
2017-Sep-18 05:27N 46°21' E 030°42'0 0.0
2017-Sep-18 05:00N 46°21' E 030°42'0 0.0
2017-Sep-18 04:30N 46°21' E 030°42'0 0.0
2017-Sep-18 04:00N 46°21' E 030°42'0 0.0
2017-Sep-18 03:30N 46°21' E 030°42'0 0.0
2017-Sep-18 02:47N 46°21' E 030°42'0 0.0
2017-Sep-18 02:30N 46°21' E 030°42'0 0.0
2017-Sep-18 02:00N 46°21' E 030°42'0 0.0
2017-Sep-18 01:27N 46°21' E 030°42'0 0.0
2017-Sep-18 01:00N 46°21' E 030°42'0 0.0
2017-Sep-18 00:30N 46°21' E 030°42'0 0.0
2017-Sep-18 00:00N 46°21' E 030°42'0 0.0
2017-Sep-17 23:31N 46°21' E 030°42'0 0.0
2017-Sep-17 23:00N 46°21' E 030°42'0 0.0
2017-Sep-17 22:31N 46°21' E 030°42'0 0.0
2017-Sep-17 21:35N 46°21' E 030°42'0 0.0
2017-Sep-17 21:27N 46°21' E 030°42'0 0.0
2017-Sep-17 21:01N 46°21' E 030°42'0 0.0
2017-Sep-17 20:12N 46°21' E 030°42'0 0.0
2017-Sep-17 07:38N 46°21' E 030°42'0 0.0
2017-Sep-17 07:29N 46°21' E 030°42'0 0.0
2017-Sep-17 07:00N 46°21' E 030°42'0 0.0
2017-Sep-17 05:31N 46°21' E 030°42'0 0.0
2017-Sep-17 05:30N 46°21' E 030°42'3 0.1
2017-Sep-15 10:56N 46°20' E 030°38'0 0.0
2017-Sep-15 10:30N 46°20' E 030°38'0 0.0
2017-Sep-15 09:58N 46°20' E 030°38'0 0.0
2017-Sep-15 09:30N 46°20' E 030°38'0 0.0
2017-Sep-15 08:59N 46°20' E 030°38'  
2017-Sep-12 10:17N 46°21' E 030°42'0 0.0
2017-Sep-12 00:58N 46°21' E 030°42'0 0.0
2017-Sep-11 17:15N 46°21' E 030°42'0 0.0
2017-Sep-11 17:00N 46°21' E 030°42'0 0.0
2017-Sep-11 16:29N 46°21' E 030°42'0 0.0
2017-Sep-11 15:59N 46°21' E 030°42'0 0.0
2017-Sep-11 15:29N 46°21' E 030°42'0 0.0
2017-Sep-11 15:00N 46°21' E 030°42'0 0.0
2017-Sep-11 14:30N 46°21' E 030°42'0 0.0
2017-Sep-11 14:00N 46°21' E 030°42'0 0.0
2017-Sep-11 13:30N 46°21' E 030°42'0 0.0
2017-Sep-11 13:00N 46°21' E 030°42'  

Dump ship's entire track history